sensor_id;sensor_type;location;lat;lon;timestamp;P1;P2;P0
74295;PMS7003;62690;48.420;-4.512;2022-08-27T11:22:54;1.25;1.00;0.00
74295;PMS7003;62690;48.420;-4.512;2022-08-27T11:25:29;2.00;2.00;1.00
74295;PMS7003;62690;48.420;-4.512;2022-08-27T11:27:56;3.00;2.00;1.50
74295;PMS7003;62690;48.420;-4.512;2022-08-27T11:33:15;1.00;1.00;1.00
74295;PMS7003;62690;48.420;-4.512;2022-08-27T11:44:02;1.00;1.00;1.00
74295;PMS7003;62690;48.420;-4.512;2022-08-27T11:46:36;0.25;0.25;0.00
74295;PMS7003;62690;48.420;-4.512;2022-08-27T11:49:33;1.00;1.00;1.00
74295;PMS7003;62690;48.420;-4.512;2022-08-27T11:52:07;2.00;2.00;1.75
74295;PMS7003;62690;48.420;-4.512;2022-08-27T11:54:56;1.25;1.25;1.00
74295;PMS7003;62690;48.420;-4.512;2022-08-27T11:57:26;1.00;1.00;1.00
74295;PMS7003;62690;48.420;-4.512;2022-08-27T11:59:55;3.75;2.00;1.00
74295;PMS7003;62690;48.420;-4.512;2022-08-27T12:02:25;2.50;2.50;1.00
74295;PMS7003;62690;48.420;-4.512;2022-08-27T12:05:04;2.00;2.00;1.00
74295;PMS7003;62690;48.420;-4.512;2022-08-27T12:07:33;1.25;1.25;1.00
74295;PMS7003;62690;48.420;-4.512;2022-08-27T12:12:32;0.25;0.25;0.25
74295;PMS7003;62690;48.420;-4.512;2022-08-27T12:15:24;2.00;2.00;1.00
74295;PMS7003;62690;48.420;-4.512;2022-08-27T12:17:59;1.25;1.25;1.00
74295;PMS7003;62690;48.420;-4.512;2022-08-27T12:31:43;1.25;1.25;0.75
74295;PMS7003;62690;48.420;-4.512;2022-08-27T12:34:18;0.75;0.00;0.00
74295;PMS7003;62690;48.420;-4.512;2022-08-27T12:36:51;1.00;1.00;1.00
74295;PMS7003;62690;48.420;-4.512;2022-08-27T12:39:18;0.75;0.75;0.50
74295;PMS7003;62690;48.420;-4.512;2022-08-27T12:41:48;0.50;0.50;0.00
74295;PMS7003;62690;48.420;-4.512;2022-08-27T12:44:22;1.50;1.50;1.00
74295;PMS7003;62690;48.420;-4.512;2022-08-27T12:46:56;2.00;2.00;2.00
74295;PMS7003;62690;48.420;-4.512;2022-08-27T12:49:27;1.00;1.00;0.75
74295;PMS7003;62690;48.420;-4.512;2022-08-27T12:52:01;1.00;1.00;1.00
74295;PMS7003;62690;48.420;-4.512;2022-08-27T12:54:54;1.00;1.00;1.00
74295;PMS7003;62690;48.420;-4.512;2022-08-27T13:00:19;3.00;1.75;1.25
74295;PMS7003;62690;48.420;-4.512;2022-08-27T13:05:34;1.00;1.00;1.00
74295;PMS7003;62690;48.420;-4.512;2022-08-27T13:08:05;1.00;1.00;0.00
74295;PMS7003;62690;48.420;-4.512;2022-08-27T13:10:52;1.00;1.00;0.50
74295;PMS7003;62690;48.420;-4.512;2022-08-27T13:13:19;0.25;0.25;0.00
74295;PMS7003;62690;48.420;-4.512;2022-08-27T13:15:55;1.00;1.00;1.00
74295;PMS7003;62690;48.420;-4.512;2022-08-27T13:18:25;0.00;0.00;0.00
74295;PMS7003;62690;48.420;-4.512;2022-08-27T13:20:59;2.00;2.00;1.50
74295;PMS7003;62690;48.420;-4.512;2022-08-27T13:23:30;2.00;2.00;2.00
74295;PMS7003;62690;48.420;-4.512;2022-08-27T13:28:32;1.75;1.75;1.00
74295;PMS7003;62690;48.420;-4.512;2022-08-27T13:30:59;1.75;1.75;1.00
74295;PMS7003;62690;48.420;-4.512;2022-08-27T13:33:26;1.50;1.50;1.00
74295;PMS7003;62690;48.420;-4.512;2022-08-27T13:35:55;2.00;2.00;1.50
74295;PMS7003;62690;48.420;-4.512;2022-08-27T13:38:25;2.00;2.00;1.00
74295;PMS7003;62690;48.420;-4.512;2022-08-27T13:43:19;1.00;1.00;0.50
74295;PMS7003;62690;48.420;-4.512;2022-08-27T13:45:53;2.00;2.00;1.00
74295;PMS7003;62690;48.420;-4.512;2022-08-27T13:48:20;1.00;1.00;0.50
74295;PMS7003;62690;48.420;-4.512;2022-08-27T13:50:50;1.00;1.00;1.00
74295;PMS7003;62690;48.420;-4.512;2022-08-27T13:53:18;1.00;1.00;1.00
74295;PMS7003;62690;48.420;-4.512;2022-08-27T13:56:07;1.00;1.00;1.00
74295;PMS7003;62690;48.420;-4.512;2022-08-27T13:58:34;0.75;0.75;0.25
74295;PMS7003;62690;48.420;-4.512;2022-08-27T14:01:09;1.25;0.75;0.75
74295;PMS7003;62690;48.420;-4.512;2022-08-27T14:03:45;0.75;0.75;0.75
74295;PMS7003;62690;48.420;-4.512;2022-08-27T14:06:27;1.25;1.25;1.00
74295;PMS7003;62690;48.420;-4.512;2022-08-27T14:08:57;1.25;1.25;1.00
74295;PMS7003;62690;48.420;-4.512;2022-08-27T14:11:34;1.00;1.00;1.00
74295;PMS7003;62690;48.420;-4.512;2022-08-27T14:14:00;3.00;1.00;1.00
74295;PMS7003;62690;48.420;-4.512;2022-08-27T14:16:27;1.00;1.00;1.00
74295;PMS7003;62690;48.420;-4.512;2022-08-27T14:19:40;1.00;1.00;1.00
74295;PMS7003;62690;48.420;-4.512;2022-08-27T14:22:11;2.25;2.25;2.00
74295;PMS7003;62690;48.420;-4.512;2022-08-27T14:24:36;0.50;0.50;0.25
74295;PMS7003;62690;48.420;-4.512;2022-08-27T14:27:08;0.50;0.50;0.50
74295;PMS7003;62690;48.420;-4.512;2022-08-27T14:29:36;0.75;0.75;0.00
74295;PMS7003;62690;48.420;-4.512;2022-08-27T14:32:02;0.00;0.00;0.00
74295;PMS7003;62690;48.420;-4.512;2022-08-27T14:34:27;2.00;2.00;0.75
74295;PMS7003;62690;48.420;-4.512;2022-08-27T14:36:53;0.25;0.25;0.00
74295;PMS7003;62690;48.420;-4.512;2022-08-27T14:39:18;2.00;1.00;1.00
74295;PMS7003;62690;48.420;-4.512;2022-08-27T14:41:44;1.00;1.00;0.25
74295;PMS7003;62690;48.420;-4.512;2022-08-27T14:44:09;0.00;0.00;0.00
74295;PMS7003;62690;48.420;-4.512;2022-08-27T14:46:35;1.50;1.50;1.00
74295;PMS7003;62690;48.420;-4.512;2022-08-27T14:49:02;0.25;0.25;0.00
74295;PMS7003;62690;48.420;-4.512;2022-08-27T14:51:45;0.25;0.25;0.25
74295;PMS7003;62690;48.420;-4.512;2022-08-27T14:54:10;0.00;0.00;0.00
74295;PMS7003;62690;48.420;-4.512;2022-08-27T14:56:36;0.00;0.00;0.00
74295;PMS7003;62690;48.420;-4.512;2022-08-27T14:59:02;0.25;0.25;0.00
74295;PMS7003;62690;48.420;-4.512;2022-08-27T15:01:27;0.75;0.75;0.00
74295;PMS7003;62690;48.420;-4.512;2022-08-27T15:03:53;0.00;0.00;0.00
74295;PMS7003;62690;48.420;-4.512;2022-08-27T15:06:20;0.00;0.00;0.00
74295;PMS7003;62690;48.420;-4.512;2022-08-27T15:08:47;0.00;0.00;0.00
74295;PMS7003;62690;48.420;-4.512;2022-08-27T15:11:27;0.00;0.00;0.00
74295;PMS7003;62690;48.420;-4.512;2022-08-27T15:13:58;0.00;0.00;0.00
74295;PMS7003;62690;48.420;-4.512;2022-08-27T15:16:31;0.00;0.00;0.00
74295;PMS7003;62690;48.420;-4.512;2022-08-27T15:18:58;0.50;0.50;0.50
74295;PMS7003;62690;48.420;-4.512;2022-08-27T15:21:24;0.00;0.00;0.00
74295;PMS7003;62690;48.420;-4.512;2022-08-27T15:23:52;1.75;0.00;0.00
74295;PMS7003;62690;48.420;-4.512;2022-08-27T15:26:21;0.00;0.00;0.00
74295;PMS7003;62690;48.420;-4.512;2022-08-27T15:28:47;0.00;0.00;0.00
74295;PMS7003;62690;48.420;-4.512;2022-08-27T15:31:12;0.00;0.00;0.00
74295;PMS7003;62690;48.420;-4.512;2022-08-27T15:33:37;0.00;0.00;0.00
74295;PMS7003;62690;48.420;-4.512;2022-08-27T15:36:03;0.00;0.00;0.00
74295;PMS7003;62690;48.420;-4.512;2022-08-27T15:38:28;0.00;0.00;0.00
74295;PMS7003;62690;48.420;-4.512;2022-08-27T15:40:54;0.00;0.00;0.00
74295;PMS7003;62690;48.420;-4.512;2022-08-27T15:43:19;0.00;0.00;0.00
74295;PMS7003;62690;48.420;-4.512;2022-08-27T15:45:45;0.50;0.50;0.50
74295;PMS7003;62690;48.420;-4.512;2022-08-27T15:48:11;0.00;0.00;0.00
74295;PMS7003;62690;48.420;-4.512;2022-08-27T15:50:36;0.00;0.00;0.00
74295;PMS7003;62690;48.420;-4.512;2022-08-27T15:53:03;0.00;0.00;0.00
74295;PMS7003;62690;48.420;-4.512;2022-08-27T15:55:32;0.00;0.00;0.00
74295;PMS7003;62690;48.420;-4.512;2022-08-27T15:58:01;0.00;0.00;0.00
74295;PMS7003;62690;48.420;-4.512;2022-08-27T16:00:27;0.00;0.00;0.00
74295;PMS7003;62690;48.420;-4.512;2022-08-27T16:02:54;0.00;0.00;0.00
74295;PMS7003;62690;48.420;-4.512;2022-08-27T16:05:21;2.00;1.00;0.00
74295;PMS7003;62690;48.420;-4.512;2022-08-27T16:07:47;0.00;0.00;0.00
74295;PMS7003;62690;48.420;-4.512;2022-08-27T16:10:13;0.00;0.00;0.00
74295;PMS7003;62690;48.420;-4.512;2022-08-27T16:12:38;0.75;0.75;0.00
74295;PMS7003;62690;48.420;-4.512;2022-08-27T16:15:05;0.00;0.00;0.00
74295;PMS7003;62690;48.420;-4.512;2022-08-27T16:17:31;0.00;0.00;0.00
74295;PMS7003;62690;48.420;-4.512;2022-08-27T16:19:57;0.00;0.00;0.00
74295;PMS7003;62690;48.420;-4.512;2022-08-27T16:22:22;0.00;0.00;0.00
74295;PMS7003;62690;48.420;-4.512;2022-08-27T16:24:48;0.00;0.00;0.00
74295;PMS7003;62690;48.420;-4.512;2022-08-27T16:27:13;1.00;0.00;0.00
74295;PMS7003;62690;48.420;-4.512;2022-08-27T16:29:39;0.00;0.00;0.00
74295;PMS7003;62690;48.420;-4.512;2022-08-27T16:32:04;0.50;0.00;0.00
74295;PMS7003;62690;48.420;-4.512;2022-08-27T16:34:30;0.00;0.00;0.00
74295;PMS7003;62690;48.420;-4.512;2022-08-27T16:36:55;0.00;0.00;0.00
74295;PMS7003;62690;48.420;-4.512;2022-08-27T16:39:21;1.00;1.00;0.00
74295;PMS7003;62690;48.420;-4.512;2022-08-27T16:41:46;0.00;0.00;0.00
74295;PMS7003;62690;48.420;-4.512;2022-08-27T16:44:12;0.00;0.00;0.00
74295;PMS7003;62690;48.420;-4.512;2022-08-27T16:46:38;1.00;0.00;0.00
74295;PMS7003;62690;48.420;-4.512;2022-08-27T16:49:04;0.00;0.00;0.00
74295;PMS7003;62690;48.420;-4.512;2022-08-27T16:51:48;0.00;0.00;0.00
74295;PMS7003;62690;48.420;-4.512;2022-08-27T16:54:13;1.00;0.00;0.00
74295;PMS7003;62690;48.420;-4.512;2022-08-27T16:56:41;0.50;0.50;0.00
74295;PMS7003;62690;48.420;-4.512;2022-08-27T16:59:07;0.00;0.00;0.00
74295;PMS7003;62690;48.420;-4.512;2022-08-27T17:01:37;0.00;0.00;0.00
74295;PMS7003;62690;48.420;-4.512;2022-08-27T17:04:05;2.00;0.25;0.00
74295;PMS7003;62690;48.420;-4.512;2022-08-27T17:06:31;0.00;0.00;0.00
74295;PMS7003;62690;48.420;-4.512;2022-08-27T17:08:57;0.25;0.25;0.00
74295;PMS7003;62690;48.420;-4.512;2022-08-27T17:11:24;0.75;0.75;0.00
74295;PMS7003;62690;48.420;-4.512;2022-08-27T17:13:52;0.00;0.00;0.00
74295;PMS7003;62690;48.420;-4.512;2022-08-27T17:16:22;0.00;0.00;0.00
74295;PMS7003;62690;48.420;-4.512;2022-08-27T17:18:50;0.00;0.00;0.00
74295;PMS7003;62690;48.420;-4.512;2022-08-27T17:21:16;0.00;0.00;0.00
74295;PMS7003;62690;48.420;-4.512;2022-08-27T17:23:45;0.00;0.00;0.00
74295;PMS7003;62690;48.420;-4.512;2022-08-27T17:26:13;0.00;0.00;0.00
74295;PMS7003;62690;48.420;-4.512;2022-08-27T17:28:39;1.00;1.00;0.75
74295;PMS7003;62690;48.420;-4.512;2022-08-27T17:31:06;0.00;0.00;0.00
74295;PMS7003;62690;48.420;-4.512;2022-08-27T17:33:34;1.00;1.00;0.00
74295;PMS7003;62690;48.420;-4.512;2022-08-27T17:36:03;0.00;0.00;0.00
74295;PMS7003;62690;48.420;-4.512;2022-08-27T17:38:30;0.00;0.00;0.00
74295;PMS7003;62690;48.420;-4.512;2022-08-27T17:40:58;1.00;1.00;1.00
74295;PMS7003;62690;48.420;-4.512;2022-08-27T17:43:27;0.00;0.00;0.00
74295;PMS7003;62690;48.420;-4.512;2022-08-27T17:45:53;0.50;0.50;0.50
74295;PMS7003;62690;48.420;-4.512;2022-08-27T17:48:18;2.00;0.25;0.00
74295;PMS7003;62690;48.420;-4.512;2022-08-27T17:50:45;1.00;0.00;0.00
74295;PMS7003;62690;48.420;-4.512;2022-08-27T17:53:11;0.50;0.50;0.00
74295;PMS7003;62690;48.420;-4.512;2022-08-27T17:55:37;0.75;0.75;0.00
74295;PMS7003;62690;48.420;-4.512;2022-08-27T17:58:03;1.25;0.25;0.00
74295;PMS7003;62690;48.420;-4.512;2022-08-27T18:00:28;0.75;0.75;0.75
74295;PMS7003;62690;48.420;-4.512;2022-08-27T18:02:54;1.00;0.00;0.00
74295;PMS7003;62690;48.420;-4.512;2022-08-27T18:05:21;1.00;1.00;0.25
74295;PMS7003;62690;48.420;-4.512;2022-08-27T18:07:47;1.50;1.00;1.00
74295;PMS7003;62690;48.420;-4.512;2022-08-27T18:10:18;0.75;0.75;0.00
74295;PMS7003;62690;48.420;-4.512;2022-08-27T18:12:47;0.75;0.75;0.75
74295;PMS7003;62690;48.420;-4.512;2022-08-27T18:17:47;1.00;1.00;1.00
74295;PMS7003;62690;48.420;-4.512;2022-08-27T18:20:14;1.00;1.00;1.00
74295;PMS7003;62690;48.420;-4.512;2022-08-27T18:22:40;2.00;2.00;1.00
74295;PMS7003;62690;48.420;-4.512;2022-08-27T18:25:07;1.75;1.50;1.00
74295;PMS7003;62690;48.420;-4.512;2022-08-27T18:27:33;1.25;1.25;1.00
74295;PMS7003;62690;48.420;-4.512;2022-08-27T18:30:01;1.00;1.00;1.00
74295;PMS7003;62690;48.420;-4.512;2022-08-27T18:32:27;2.75;1.25;1.00
74295;PMS7003;62690;48.420;-4.512;2022-08-27T18:34:53;4.50;3.25;2.00
74295;PMS7003;62690;48.420;-4.512;2022-08-27T18:37:20;3.00;3.00;2.00
74295;PMS7003;62690;48.420;-4.512;2022-08-27T18:39:45;1.50;1.50;1.50
74295;PMS7003;62690;48.420;-4.512;2022-08-27T18:42:11;2.75;2.75;1.75
74295;PMS7003;62690;48.420;-4.512;2022-08-27T18:44:37;1.25;1.25;1.25
74295;PMS7003;62690;48.420;-4.512;2022-08-27T18:47:06;2.00;2.00;2.00
74295;PMS7003;62690;48.420;-4.512;2022-08-27T18:49:32;3.75;3.25;2.00
74295;PMS7003;62690;48.420;-4.512;2022-08-27T18:51:58;4.00;4.00;3.00
74295;PMS7003;62690;48.420;-4.512;2022-08-27T18:54:24;4.00;4.00;2.50
74295;PMS7003;62690;48.420;-4.512;2022-08-27T18:56:51;3.75;3.00;2.75
74295;PMS7003;62690;48.420;-4.512;2022-08-27T18:59:17;2.75;2.75;1.25
74295;PMS7003;62690;48.420;-4.512;2022-08-27T19:01:42;3.00;3.00;2.25
74295;PMS7003;62690;48.420;-4.512;2022-08-27T19:04:08;3.00;2.75;2.50
74295;PMS7003;62690;48.420;-4.512;2022-08-27T19:06:34;4.25;3.50;3.00
74295;PMS7003;62690;48.420;-4.512;2022-08-27T19:09:00;4.00;4.00;3.25
74295;PMS7003;62690;48.420;-4.512;2022-08-27T19:11:26;3.25;3.00;3.00
74295;PMS7003;62690;48.420;-4.512;2022-08-27T19:13:52;5.50;5.00;4.00
74295;PMS7003;62690;48.420;-4.512;2022-08-27T19:16:19;3.00;3.00;2.00
74295;PMS7003;62690;48.420;-4.512;2022-08-27T19:18:57;3.00;3.00;2.00
74295;PMS7003;62690;48.420;-4.512;2022-08-27T19:21:23;6.00;6.00;3.25
74295;PMS7003;62690;48.420;-4.512;2022-08-27T19:23:48;5.00;5.00;4.00
74295;PMS7003;62690;48.420;-4.512;2022-08-27T19:26:17;2.50;2.50;2.00
74295;PMS7003;62690;48.420;-4.512;2022-08-27T19:28:45;6.00;5.00;3.00
74295;PMS7003;62690;48.420;-4.512;2022-08-27T19:31:11;1.25;1.25;1.00
74295;PMS7003;62690;48.420;-4.512;2022-08-27T19:33:37;4.50;4.00;3.25
74295;PMS7003;62690;48.420;-4.512;2022-08-27T19:36:04;6.00;5.00;4.25
74295;PMS7003;62690;48.420;-4.512;2022-08-27T19:38:31;5.75;5.75;4.75
74295;PMS7003;62690;48.420;-4.512;2022-08-27T19:40:58;8.00;7.00;5.00
74295;PMS7003;62690;48.420;-4.512;2022-08-27T19:43:24;10.00;8.25;5.25
74295;PMS7003;62690;48.420;-4.512;2022-08-27T19:45:49;5.75;5.75;4.25
74295;PMS7003;62690;48.420;-4.512;2022-08-27T19:48:15;6.00;6.00;5.00
74295;PMS7003;62690;48.420;-4.512;2022-08-27T19:50:41;8.00;8.00;6.00
74295;PMS7003;62690;48.420;-4.512;2022-08-27T19:53:07;7.50;7.00;5.50
74295;PMS7003;62690;48.420;-4.512;2022-08-27T19:55:32;3.50;2.50;1.25
74295;PMS7003;62690;48.420;-4.512;2022-08-27T19:57:58;4.50;4.50;4.00
74295;PMS7003;62690;48.420;-4.512;2022-08-27T20:00:24;9.00;6.75;5.00
74295;PMS7003;62690;48.420;-4.512;2022-08-27T20:02:50;8.75;6.25;5.50
74295;PMS7003;62690;48.420;-4.512;2022-08-27T20:05:16;6.50;4.50;3.25
74295;PMS7003;62690;48.420;-4.512;2022-08-27T20:07:43;6.25;6.25;5.50
74295;PMS7003;62690;48.420;-4.512;2022-08-27T20:10:08;9.25;8.25;5.25
74295;PMS7003;62690;48.420;-4.512;2022-08-27T20:12:34;8.50;7.75;5.75
74295;PMS7003;62690;48.420;-4.512;2022-08-27T20:15:00;9.00;8.00;5.75
74295;PMS7003;62690;48.420;-4.512;2022-08-27T20:17:25;10.00;9.75;6.00
74295;PMS7003;62690;48.420;-4.512;2022-08-27T20:19:51;6.25;6.25;5.00
74295;PMS7003;62690;48.420;-4.512;2022-08-27T20:22:16;8.25;8.25;5.75
74295;PMS7003;62690;48.420;-4.512;2022-08-27T20:24:42;7.50;7.00;6.00
74295;PMS7003;62690;48.420;-4.512;2022-08-27T20:27:07;5.50;4.50;3.75
74295;PMS7003;62690;48.420;-4.512;2022-08-27T20:29:33;7.75;6.75;5.00
74295;PMS7003;62690;48.420;-4.512;2022-08-27T20:31:58;7.25;7.25;5.25
74295;PMS7003;62690;48.420;-4.512;2022-08-27T20:34:24;5.75;5.75;4.00
74295;PMS7003;62690;48.420;-4.512;2022-08-27T20:36:50;5.50;4.50;4.00
74295;PMS7003;62690;48.420;-4.512;2022-08-27T20:39:16;5.75;5.00;3.25
74295;PMS7003;62690;48.420;-4.512;2022-08-27T20:41:42;6.00;6.00;4.00
74295;PMS7003;62690;48.420;-4.512;2022-08-27T20:44:07;4.25;4.25;3.25
74295;PMS7003;62690;48.420;-4.512;2022-08-27T20:46:33;5.00;5.00;3.75
74295;PMS7003;62690;48.420;-4.512;2022-08-27T20:48:58;4.25;4.00;3.50
74295;PMS7003;62690;48.420;-4.512;2022-08-27T20:51:24;5.00;4.00;2.00
74295;PMS7003;62690;48.420;-4.512;2022-08-27T20:53:50;6.75;5.50;3.00
74295;PMS7003;62690;48.420;-4.512;2022-08-27T20:56:16;4.25;4.00;3.00
74295;PMS7003;62690;48.420;-4.512;2022-08-27T20:58:42;4.75;4.75;4.00
74295;PMS7003;62690;48.420;-4.512;2022-08-27T21:01:43;6.00;6.00;4.75
74295;PMS7003;62690;48.420;-4.512;2022-08-27T21:04:08;5.25;4.75;3.00
74295;PMS7003;62690;48.420;-4.512;2022-08-27T21:06:33;6.00;4.75;3.75
74295;PMS7003;62690;48.420;-4.512;2022-08-27T21:08:59;4.00;4.00;3.00
74295;PMS7003;62690;48.420;-4.512;2022-08-27T21:11:24;6.50;6.00;4.00
74295;PMS7003;62690;48.420;-4.512;2022-08-27T21:13:50;3.50;3.50;2.75
74295;PMS7003;62690;48.420;-4.512;2022-08-27T21:16:15;5.50;4.00;3.00
74295;PMS7003;62690;48.420;-4.512;2022-08-27T21:18:41;4.50;4.50;4.00
74295;PMS7003;62690;48.420;-4.512;2022-08-27T21:21:07;4.75;4.75;2.75
74295;PMS7003;62690;48.420;-4.512;2022-08-27T21:23:34;5.00;4.00;3.25
74295;PMS7003;62690;48.420;-4.512;2022-08-27T21:26:03;5.50;5.50;3.75
74295;PMS7003;62690;48.420;-4.512;2022-08-27T21:28:32;3.75;3.75;3.00
74295;PMS7003;62690;48.420;-4.512;2022-08-27T21:30:58;4.50;4.50;4.00
74295;PMS7003;62690;48.420;-4.512;2022-08-27T21:33:23;5.00;5.00;3.00
